Time;durP1;ratioP1;P1;durP2;ratioP2;P2;SDS_P1;SDS_P2;PMS_P1;PMS_P2;Temp;Humidity;BMP_temperature;BMP_pressure;BME280_temperature;BME280_humidity;BME280_pressure;Samples;Min_cycle;Max_cycle;Signal;HPM_P1;HPM_P2
2021/11/16 00:00:43;;;;;;;39.15;21.23;;;6.20;99.90;;;;;;5038897;28;20041;-87
2021/11/16 00:03:10;;;;;;;39.88;22.75;;;6.20;99.90;;;;;;5056744;28;20053;-87
2021/11/16 00:05:38;;;;;;;38.28;22.05;;;6.20;99.90;;;;;;5038539;28;20041;-87
2021/11/16 00:08:06;;;;;;;40.60;21.38;;;6.20;99.90;;;;;;5038865;28;20072;-87
2021/11/16 00:10:37;;;;;;;35.88;20.02;;;6.20;99.90;;;;;;5038638;28;20053;-87
2021/11/16 00:13:10;;;;;;;40.90;21.88;;;6.20;99.90;;;;;;5056390;28;20055;-87
2021/11/16 00:15:39;;;;;;;38.13;21.40;;;6.20;99.90;;;;;;5038777;28;20456;-87
2021/11/16 00:18:06;;;;;;;37.90;21.00;;;6.20;99.90;;;;;;5038409;28;20055;-87
2021/11/16 00:20:37;;;;;;;36.53;21.10;;;6.20;99.90;;;;;;5038383;28;20392;-87
2021/11/16 00:23:04;;;;;;;37.85;21.00;;;6.20;99.90;;;;;;5038669;28;20055;-87
2021/11/16 00:25:34;;;;;;;37.22;21.40;;;6.20;99.90;;;;;;5038198;28;20052;-87
2021/11/16 00:28:03;;;;;;;39.40;21.90;;;6.20;99.90;;;;;;5056226;28;20099;-87
2021/11/16 00:30:30;;;;;;;37.65;21.05;;;6.20;99.90;;;;;;5038194;28;20488;-87
2021/11/16 00:32:57;;;;;;;38.50;21.48;;;6.30;99.90;;;;;;5056046;28;20218;-87
2021/11/16 00:35:23;;;;;;;40.58;20.83;;;6.30;99.90;;;;;;5056074;28;20053;-87
2021/11/16 00:37:50;;;;;;;38.20;21.08;;;6.30;99.90;;;;;;5037950;28;20049;-87
2021/11/16 00:40:19;;;;;;;39.58;21.48;;;6.30;99.90;;;;;;5038195;28;20055;-87
2021/11/16 00:42:49;;;;;;;39.72;20.33;;;6.30;99.90;;;;;;5038233;28;20408;-87
2021/11/16 00:45:17;;;;;;;39.63;22.33;;;6.30;99.90;;;;;;5037860;28;20053;-87
2021/11/16 00:47:44;;;;;;;38.90;22.55;;;6.30;99.90;;;;;;5055635;28;20148;-87
2021/11/16 00:50:15;;;;;;;40.55;23.23;;;6.30;99.90;;;;;;5037980;28;20127;-87
2021/11/16 00:52:43;;;;;;;39.72;20.52;;;6.30;99.90;;;;;;5038044;28;20088;-87
2021/11/16 00:55:11;;;;;;;36.42;21.35;;;6.30;99.90;;;;;;5055359;28;20056;-87
2021/11/16 00:57:38;;;;;;;38.35;21.25;;;6.30;99.90;;;;;;5055037;28;20151;-87
2021/11/16 01:00:07;;;;;;;39.47;20.73;;;6.20;99.90;;;;;;5037757;28;20075;-87
2021/11/16 01:02:35;;;;;;;40.08;21.35;;;6.20;99.90;;;;;;5055955;28;20048;-88
2021/11/16 01:05:02;;;;;;;40.53;21.33;;;6.30;99.90;;;;;;5037872;28;20408;-88
2021/11/16 01:07:31;;;;;;;39.45;21.77;;;6.30;99.90;;;;;;5037724;28;20080;-88
2021/11/16 01:09:59;;;;;;;39.03;21.35;;;6.30;99.90;;;;;;5036912;28;20049;-88
2021/11/16 01:12:27;;;;;;;40.17;22.00;;;6.30;99.90;;;;;;5037384;28;20063;-88
2021/11/16 01:14:57;;;;;;;38.22;22.02;;;6.30;99.90;;;;;;5037781;28;20041;-88
2021/11/16 01:17:24;;;;;;;35.33;20.67;;;6.30;99.90;;;;;;5037671;28;20069;-88
2021/11/16 01:19:52;;;;;;;39.60;21.38;;;6.30;99.90;;;;;;5038061;28;20045;-88
2021/11/16 01:22:19;;;;;;;38.25;20.65;;;6.20;99.90;;;;;;5037363;28;20051;-88
2021/11/16 01:24:46;;;;;;;39.42;21.58;;;6.30;99.90;;;;;;5037532;28;20159;-88
2021/11/16 01:27:18;;;;;;;39.80;21.23;;;6.30;99.90;;;;;;5037411;28;20052;-88
2021/11/16 01:29:47;;;;;;;39.30;21.50;;;6.20;99.90;;;;;;5037810;28;20375;-88
2021/11/16 01:32:30;;;;;;;38.60;20.80;;;6.20;99.90;;;;;;5037357;28;20479;-87
2021/11/16 01:34:58;;;;;;;42.15;22.42;;;6.30;99.90;;;;;;5037673;28;20048;-88
2021/11/16 01:37:25;;;;;;;34.83;20.52;;;6.30;99.90;;;;;;5037236;28;20041;-87
2021/11/16 01:39:53;;;;;;;36.92;20.90;;;6.20;99.90;;;;;;5037188;28;20075;-87
2021/11/16 01:42:20;;;;;;;39.38;22.55;;;6.20;99.90;;;;;;5054933;28;20049;-88
2021/11/16 01:44:48;;;;;;;37.10;20.75;;;6.20;99.90;;;;;;5037381;28;20147;-88
2021/11/16 01:47:15;;;;;;;40.08;22.38;;;6.20;99.90;;;;;;5054724;28;20139;-88
2021/11/16 01:49:43;;;;;;;39.38;20.92;;;6.20;99.90;;;;;;5055198;28;20080;-88
2021/11/16 01:52:10;;;;;;;38.42;21.17;;;6.10;99.90;;;;;;5037345;28;20080;-88
2021/11/16 01:54:37;;;;;;;39.58;21.13;;;6.10;99.90;;;;;;5054585;28;20056;-88
2021/11/16 01:57:06;;;;;;;40.00;21.98;;;6.10;99.90;;;;;;5054490;28;20052;-88
2021/11/16 01:59:33;;;;;;;39.53;21.15;;;6.10;99.90;;;;;;5054544;28;20049;-88
2021/11/16 02:02:01;;;;;;;36.70;20.85;;;6.20;99.90;;;;;;5037236;28;20059;-88
2021/11/16 02:04:28;;;;;;;38.53;21.77;;;6.10;99.90;;;;;;5036630;28;20560;-86
2021/11/16 02:06:55;;;;;;;37.75;21.35;;;6.20;99.90;;;;;;5036836;28;20052;-88
2021/11/16 02:09:22;;;;;;;40.20;22.58;;;6.00;99.90;;;;;;5054398;28;20087;-88
2021/11/16 02:11:49;;;;;;;38.90;22.42;;;6.10;99.90;;;;;;5036614;28;20052;-88
2021/11/16 02:14:17;;;;;;;40.08;22.02;;;6.10;99.90;;;;;;5054095;28;20140;-88
2021/11/16 02:16:45;;;;;;;39.03;22.10;;;6.10;99.90;;;;;;5053988;28;20055;-88
2021/11/16 02:19:15;;;;;;;37.60;22.25;;;6.10;99.90;;;;;;5053986;28;20059;-88
2021/11/16 02:21:42;;;;;;;35.75;21.75;;;6.20;99.90;;;;;;5036762;28;20048;-86
2021/11/16 02:24:10;;;;;;;38.75;21.75;;;6.20;99.90;;;;;;5036199;28;20075;-86
2021/11/16 02:26:38;;;;;;;45.85;23.50;;;6.20;99.90;;;;;;5036014;28;20059;-88
2021/11/16 02:29:07;;;;;;;46.20;24.52;;;6.00;99.90;;;;;;5036557;28;20056;-88
2021/11/16 02:31:34;;;;;;;46.08;25.38;;;6.00;99.90;;;;;;5036195;28;20063;-88
2021/11/16 02:34:05;;;;;;;42.70;24.50;;;5.90;99.90;;;;;;5053562;28;20052;-88
2021/11/16 02:36:33;;;;;;;40.30;22.80;;;5.90;99.90;;;;;;5035943;28;20061;-87
2021/11/16 02:39:01;;;;;;;38.65;22.52;;;6.00;99.90;;;;;;5036039;28;20058;-88
2021/11/16 02:41:31;;;;;;;41.78;23.45;;;5.90;99.90;;;;;;5036076;28;20057;-88
2021/11/16 02:44:00;;;;;;;61.00;30.60;;;6.00;99.90;;;;;;5035747;28;20052;-88
2021/11/16 02:46:28;;;;;;;56.50;31.48;;;6.00;99.90;;;;;;5053076;28;20412;-88
2021/11/16 02:48:55;;;;;;;55.20;28.27;;;6.00;99.90;;;;;;5036437;28;20049;-88
2021/11/16 02:51:23;;;;;;;47.75;26.27;;;5.90;99.90;;;;;;5035993;28;20471;-88
2021/11/16 02:53:49;;;;;;;49.88;27.30;;;5.90;99.90;;;;;;5036100;28;20053;-88
2021/11/16 02:56:17;;;;;;;46.67;24.02;;;5.90;99.90;;;;;;5035853;28;20041;-88
2021/11/16 02:58:44;;;;;;;40.42;23.90;;;6.00;99.90;;;;;;5053588;28;20049;-87
2021/11/16 03:01:15;;;;;;;41.50;22.35;;;6.10;99.90;;;;;;5035303;28;20049;-87
2021/11/16 03:03:43;;;;;;;42.83;24.48;;;6.10;99.90;;;;;;5035702;28;20556;-88
2021/11/16 03:06:12;;;;;;;45.63;24.85;;;6.10;99.90;;;;;;5053112;28;20141;-88
2021/11/16 03:08:40;;;;;;;42.78;25.13;;;6.20;99.90;;;;;;5035453;28;20052;-88
2021/11/16 03:11:09;;;;;;;41.17;24.45;;;6.20;99.90;;;;;;5036053;28;20475;-87
2021/11/16 03:13:38;;;;;;;52.83;27.50;;;6.20;99.90;;;;;;5053265;28;20475;-87
2021/11/16 03:16:11;;;;;;;48.55;27.38;;;6.20;99.90;;;;;;5035812;28;20052;-88
2021/11/16 03:18:52;;;;;;;48.33;26.10;;;6.20;99.90;;;;;;5032141;28;20071;-88
2021/11/16 03:21:21;;;;;;;45.13;26.23;;;6.30;99.90;;;;;;5032474;28;20132;-87
2021/11/16 03:23:50;;;;;;;48.35;27.55;;;6.20;99.90;;;;;;5035869;28;20055;-87
2021/11/16 03:26:19;;;;;;;51.03;27.20;;;6.10;99.90;;;;;;5035451;28;20144;-87
2021/11/16 03:28:50;;;;;;;52.63;26.67;;;6.10;99.90;;;;;;5053015;28;20128;-87
2021/11/16 03:33:50;;;;;;;48.27;25.73;;;6.00;99.90;;;;;;5057511;28;20132;-87
2021/11/16 03:36:19;;;;;;;46.67;24.85;;;6.00;99.90;;;;;;5039434;28;20048;-87
2021/11/16 03:38:47;;;;;;;51.65;27.85;;;6.00;99.90;;;;;;5057151;28;20095;-87
2021/11/16 03:41:14;;;;;;;58.10;29.75;;;6.00;99.90;;;;;;5039555;28;20464;-88
2021/11/16 03:43:42;;;;;;;58.88;29.33;;;6.00;99.90;;;;;;5039242;28;20051;-88
2021/11/16 03:46:09;;;;;;;55.72;29.10;;;6.00;99.90;;;;;;5039090;28;20492;-87
2021/11/16 03:48:36;;;;;;;65.35;30.73;;;5.90;99.90;;;;;;5039173;28;20385;-87
2021/11/16 03:51:04;;;;;;;57.97;29.40;;;6.00;99.90;;;;;;5056960;28;20225;-86
2021/11/16 03:53:30;;;;;;;53.22;28.23;;;5.80;99.90;;;;;;5039478;28;20045;-87
2021/11/16 03:55:57;;;;;;;53.63;28.42;;;5.80;99.90;;;;;;5038880;28;20409;-87
2021/11/16 03:58:25;;;;;;;57.80;28.67;;;5.80;99.90;;;;;;5056391;28;20053;-87
2021/11/16 04:00:56;;;;;;;58.42;28.20;;;5.80;99.90;;;;;;5039535;28;20485;-88
2021/11/16 04:03:25;;;;;;;54.33;27.88;;;5.80;99.90;;;;;;5039188;28;20086;-87
2021/11/16 04:05:53;;;;;;;60.03;31.02;;;5.80;99.90;;;;;;5039173;28;20412;-88
2021/11/16 04:08:21;;;;;;;62.10;31.67;;;5.80;99.90;;;;;;5038989;28;20135;-87
2021/11/16 04:10:49;;;;;;;61.13;31.35;;;5.80;99.90;;;;;;5039097;28;20120;-87
2021/11/16 04:13:17;;;;;;;63.38;30.75;;;5.70;99.90;;;;;;5038725;28;20045;-87
2021/11/16 04:15:46;;;;;;;59.28;31.27;;;5.70;99.90;;;;;;5038857;28;20049;-87
2021/11/16 04:18:14;;;;;;;64.80;31.58;;;5.70;99.90;;;;;;5038556;28;20040;-87
2021/11/16 04:20:43;;;;;;;63.67;32.08;;;5.60;99.90;;;;;;5056051;28;20053;-87
2021/11/16 04:23:13;;;;;;;66.82;33.55;;;5.70;99.90;;;;;;5056254;28;20081;-87
2021/11/16 04:25:41;;;;;;;61.25;30.73;;;5.60;99.90;;;;;;5038791;28;20045;-87
2021/11/16 04:28:10;;;;;;;64.22;32.15;;;5.60;99.90;;;;;;5038773;28;20428;-87
2021/11/16 04:30:37;;;;;;;63.22;31.10;;;5.70;99.90;;;;;;5038483;28;20477;-87
2021/11/16 04:33:05;;;;;;;70.47;33.95;;;5.70;99.90;;;;;;5038769;28;20489;-87
2021/11/16 04:35:32;;;;;;;59.90;29.67;;;5.80;99.90;;;;;;5038207;28;20064;-88
2021/11/16 04:38:01;;;;;;;60.03;30.73;;;5.90;99.90;;;;;;5038466;28;20052;-87
2021/11/16 04:40:32;;;;;;;57.05;29.42;;;5.90;99.90;;;;;;5038337;28;20057;-88
2021/11/16 04:43:03;;;;;;;60.38;29.55;;;6.00;99.90;;;;;;5037561;28;20503;-88
2021/11/16 04:45:30;;;;;;;55.85;29.10;;;6.00;99.90;;;;;;5038356;28;20049;-88
2021/11/16 04:48:03;;;;;;;56.97;29.75;;;6.00;99.90;;;;;;5038102;28;20055;-88
2021/11/16 04:50:56;;;;;;;63.67;31.63;;;6.10;99.90;;;;;;5038287;28;20045;-88
2021/11/16 05:04:21;;;;;;;60.28;30.25;;;5.80;99.90;;;;;;5055527;28;20557;-88
2021/11/16 05:06:50;;;;;;;64.07;31.63;;;5.90;99.90;;;;;;5055308;28;20088;-88
2021/11/16 05:09:17;;;;;;;68.38;32.55;;;6.00;99.90;;;;;;5037728;28;20080;-87
2021/11/16 05:11:44;;;;;;;69.30;31.55;;;5.90;99.90;;;;;;5037768;28;20049;-88
2021/11/16 05:14:11;;;;;;;70.43;32.55;;;5.80;99.90;;;;;;5037842;28;20049;-87
2021/11/16 05:16:38;;;;;;;67.68;32.28;;;5.80;99.90;;;;;;5055047;28;20076;-87
2021/11/16 05:19:05;;;;;;;62.63;30.77;;;5.70;99.90;;;;;;5037856;28;20428;-87
2021/11/16 05:21:32;;;;;;;67.57;31.98;;;5.70;99.90;;;;;;5037985;28;20048;-87
2021/11/16 05:24:00;;;;;;;70.85;32.92;;;5.70;99.90;;;;;;5037363;28;20063;-87
2021/11/16 05:26:28;;;;;;;62.30;32.20;;;5.60;99.90;;;;;;5037359;28;20497;-88
2021/11/16 05:28:57;;;;;;;70.45;34.63;;;5.60;99.90;;;;;;5055154;28;20049;-87
2021/11/16 05:31:24;;;;;;;74.28;34.65;;;5.60;99.90;;;;;;5037562;28;20459;-87
2021/11/16 05:33:54;;;;;;;69.47;32.10;;;5.60;99.90;;;;;;5037846;28;20045;-88
2021/11/16 05:36:22;;;;;;;69.00;33.08;;;5.70;99.90;;;;;;5037314;28;20049;-87
2021/11/16 05:38:49;;;;;;;77.35;34.90;;;5.70;99.90;;;;;;5037345;28;20064;-88
2021/11/16 05:41:17;;;;;;;69.10;34.05;;;5.80;99.90;;;;;;5037061;28;20052;-88
2021/11/16 05:43:45;;;;;;;71.28;34.08;;;5.90;99.90;;;;;;5037483;28;20098;-88
2021/11/16 05:46:19;;;;;;;75.57;33.83;;;5.70;99.90;;;;;;5037062;28;20515;-87
2021/11/16 05:48:47;;;;;;;68.13;33.28;;;5.80;99.90;;;;;;5037305;28;20057;-87
2021/11/16 05:51:15;;;;;;;81.72;34.08;;;5.70;99.90;;;;;;5037106;28;20051;-88
2021/11/16 05:53:44;;;;;;;85.40;36.05;;;5.70;99.90;;;;;;5055152;28;20049;-88
2021/11/16 05:56:12;;;;;;;77.57;34.88;;;5.70;99.90;;;;;;5037123;28;20071;-88
2021/11/16 05:58:42;;;;;;;82.47;36.03;;;5.80;99.90;;;;;;5037566;28;20476;-88
2021/11/16 06:01:09;;;;;;;72.20;34.25;;;5.80;99.90;;;;;;5037434;28;20045;-88
2021/11/16 06:03:36;;;;;;;70.22;33.35;;;5.70;99.90;;;;;;5037439;28;20044;-88
2021/11/16 06:06:02;;;;;;;65.93;31.90;;;5.70;99.90;;;;;;5037228;28;20045;-88
2021/11/16 06:08:29;;;;;;;67.45;33.45;;;5.80;99.90;;;;;;5036826;28;20060;-87
2021/11/16 06:10:57;;;;;;;73.82;34.75;;;5.70;99.90;;;;;;5037108;28;20394;-87
2021/11/16 06:13:24;;;;;;;70.60;31.83;;;5.70;99.90;;;;;;5037165;28;20090;-87
2021/11/16 06:15:51;;;;;;;75.22;33.85;;;5.60;99.90;;;;;;5037035;28;20131;-88
2021/11/16 06:18:24;;;;;;;70.70;34.35;;;5.60;99.90;;;;;;5053451;28;20053;-87
2021/11/16 06:20:53;;;;;;;71.63;34.00;;;5.50;99.90;;;;;;5036400;28;20420;-87
2021/11/16 06:23:20;;;;;;;66.90;33.60;;;5.50;99.90;;;;;;5036534;28;20479;-87
2021/11/16 06:25:47;;;;;;;75.13;37.92;;;5.60;99.90;;;;;;5036364;28;20136;-86
2021/11/16 06:28:14;;;;;;;69.68;33.75;;;5.50;99.90;;;;;;5053931;28;20423;-87
2021/11/16 06:30:41;;;;;;;69.15;32.78;;;5.40;99.90;;;;;;5053956;28;20057;-87
2021/11/16 06:33:08;;;;;;;82.05;40.00;;;5.40;99.90;;;;;;5036450;28;20052;-87
2021/11/16 06:35:35;;;;;;;67.63;32.80;;;5.40;99.90;;;;;;5035996;28;20045;-87
2021/11/16 06:38:01;;;;;;;93.50;41.80;;;5.40;99.90;;;;;;5054166;28;20045;-87
2021/11/16 06:40:28;;;;;;;72.43;34.03;;;5.40;99.90;;;;;;5036496;28;20406;-87
2021/11/16 06:42:56;;;;;;;69.57;34.05;;;5.40;99.90;;;;;;5036519;28;20053;-87
2021/11/16 06:45:23;;;;;;;65.90;31.88;;;5.50;99.90;;;;;;5036485;28;20128;-88
2021/11/16 06:47:49;;;;;;;77.50;35.50;;;5.50;99.90;;;;;;5036457;28;20425;-88
2021/11/16 06:50:17;;;;;;;73.60;34.97;;;5.50;99.90;;;;;;5053802;28;20053;-87
2021/11/16 06:52:44;;;;;;;75.30;34.83;;;5.40;99.90;;;;;;5036392;28;20048;-87
2021/11/16 06:55:12;;;;;;;71.20;33.13;;;5.50;99.90;;;;;;5036432;28;20072;-86
2021/11/16 06:57:39;;;;;;;71.40;34.10;;;5.50;99.90;;;;;;5053956;28;20432;-87
2021/11/16 07:00:08;;;;;;;66.63;34.13;;;5.50;99.90;;;;;;5036584;28;20044;-87
2021/11/16 07:02:35;;;;;;;78.70;36.20;;;5.60;99.90;;;;;;5035186;28;20067;-87
2021/11/16 07:05:09;;;;;;;102.13;40.70;;;5.50;99.90;;;;;;5035663;28;20481;-87
2021/11/16 07:07:44;;;;;;;81.10;37.55;;;5.50;99.90;;;;;;5035987;28;20047;-87
2021/11/16 07:10:15;;;;;;;74.75;34.45;;;5.60;99.90;;;;;;5036008;28;20096;-87
2021/11/16 07:12:43;;;;;;;72.05;35.80;;;5.50;99.90;;;;;;5036031;28;20053;-88
2021/11/16 07:15:11;;;;;;;67.53;34.47;;;5.50;99.90;;;;;;5035935;28;20063;-88
2021/11/16 07:17:39;;;;;;;70.45;33.42;;;5.60;99.90;;;;;;5036022;28;20407;-88
2021/11/16 07:20:06;;;;;;;72.15;33.97;;;5.70;99.90;;;;;;5035850;28;20132;-88
2021/11/16 07:22:36;;;;;;;69.15;34.58;;;5.70;99.90;;;;;;5053281;28;20095;-87
2021/11/16 07:25:12;;;;;;;70.78;34.72;;;5.70;99.90;;;;;;5035910;28;20228;-88
2021/11/16 07:27:49;;;;;;;65.18;33.58;;;5.70;99.90;;;;;;5035557;28;20500;-88
2021/11/16 07:30:25;;;;;;;66.82;33.95;;;5.70;99.90;;;;;;5053202;28;20408;-88
2021/11/16 07:32:57;;;;;;;68.05;32.55;;;5.70;99.90;;;;;;5031538;28;20055;-88
2021/11/16 07:35:32;;;;;;;315.38;191.18;;;5.70;99.90;;;;;;5035392;28;20049;-87
2021/11/16 07:38:07;;;;;;;91.05;46.20;;;5.60;99.90;;;;;;5035683;28;20168;-88
2021/11/16 07:40:39;;;;;;;64.05;32.22;;;5.60;99.90;;;;;;5035519;28;20048;-88
2021/11/16 07:43:15;;;;;;;68.47;33.33;;;5.70;99.90;;;;;;5035887;28;20063;-88
2021/11/16 07:45:52;;;;;;;65.90;32.92;;;5.80;99.90;;;;;;5052807;28;20045;-88
2021/11/16 07:48:23;;;;;;;62.35;31.85;;;5.90;99.90;;;;;;5034932;28;20065;-88
2021/11/16 07:51:03;;;;;;;70.80;36.08;;;5.90;99.90;;;;;;5035817;28;20445;-87
2021/11/16 07:53:42;;;;;;;62.53;31.73;;;6.00;99.90;;;;;;5035316;28;20060;-88
2021/11/16 07:56:22;;;;;;;58.83;29.20;;;6.00;99.90;;;;;;5052770;28;20059;-88
2021/11/16 07:58:59;;;;;;;65.78;30.83;;;6.00;99.90;;;;;;5034848;28;20053;-87
2021/11/16 08:01:42;;;;;;;77.72;39.05;;;5.90;99.90;;;;;;5052762;28;20045;-87
2021/11/16 08:04:33;;;;;;;62.80;31.40;;;5.70;99.90;;;;;;5052618;28;20056;-87
2021/11/16 08:14:46;;;;;;;63.28;32.00;;;5.50;99.90;;;;;;5053115;28;20076;-87
2021/11/16 08:17:14;;;;;;;65.50;31.85;;;5.50;99.90;;;;;;5064393;28;20396;-88
2021/11/16 08:19:43;;;;;;;66.13;32.42;;;5.40;99.90;;;;;;5056674;28;20077;-87
2021/11/16 08:22:13;;;;;;;66.70;34.38;;;5.50;99.90;;;;;;5055227;28;20053;-87
2021/11/16 08:24:46;;;;;;;66.03;35.47;;;5.60;99.90;;;;;;5047146;28;20049;-88
2021/11/16 08:27:17;;;;;;;59.53;29.90;;;5.80;99.90;;;;;;5039755;28;20134;-88
2021/11/16 08:29:48;;;;;;;57.00;28.70;;;5.80;99.90;;;;;;5057027;28;20536;-88
2021/11/16 08:32:22;;;;;;;50.95;26.33;;;5.90;99.90;;;;;;5056224;28;20087;-88
2021/11/16 08:34:55;;;;;;;56.15;28.88;;;5.80;99.90;;;;;;5038612;28;20049;-88
2021/11/16 08:37:26;;;;;;;60.90;29.00;;;5.90;99.90;;;;;;5038485;28;20056;-87
2021/11/16 08:39:57;;;;;;;52.85;27.48;;;5.80;99.90;;;;;;5056271;28;20049;-88
2021/11/16 08:42:32;;;;;;;59.00;29.67;;;5.80;99.90;;;;;;5038121;28;20049;-87
2021/11/16 08:45:14;;;;;;;58.13;28.98;;;5.80;99.90;;;;;;5038265;28;20045;-87
2021/11/16 08:47:50;;;;;;;66.60;35.95;;;5.80;99.90;;;;;;5053386;28;20064;-87
2021/11/16 08:50:30;;;;;;;91.32;53.10;;;5.70;99.90;;;;;;5054790;28;20072;-86
2021/11/16 08:52:58;;;;;;;97.68;55.75;;;5.60;99.90;;;;;;5054742;28;20133;-86
2021/11/16 08:55:29;;;;;;;72.07;36.75;;;5.50;99.90;;;;;;5054368;28;20053;-87
2021/11/16 08:58:04;;;;;;;56.05;28.58;;;5.50;99.90;;;;;;5054678;28;20133;-87
2021/11/16 09:00:35;;;;;;;80.45;42.72;;;5.40;99.90;;;;;;5055526;28;20056;-86
2021/11/16 09:03:11;;;;;;;65.65;34.33;;;5.40;99.90;;;;;;5055657;28;20496;-87
2021/11/16 09:05:47;;;;;;;74.30;38.35;;;5.50;99.90;;;;;;5054755;28;20091;-87
2021/11/16 09:08:18;;;;;;;55.05;30.50;;;5.60;99.90;;;;;;5054177;28;20519;-87
2021/11/16 09:10:46;;;;;;;51.63;28.27;;;5.70;99.90;;;;;;5054291;28;20072;-88
2021/11/16 09:13:16;;;;;;;56.88;28.20;;;5.90;99.90;;;;;;5054666;28;20068;-87
2021/11/16 09:15:45;;;;;;;51.28;27.40;;;6.00;99.90;;;;;;5053597;28;20061;-88
2021/11/16 09:18:20;;;;;;;49.63;27.65;;;6.20;99.90;;;;;;5053400;28;20107;-87
2021/11/16 09:20:59;;;;;;;55.70;28.38;;;6.30;99.90;;;;;;5054373;28;20135;-87
2021/11/16 09:23:31;;;;;;;51.83;27.23;;;6.40;99.90;;;;;;5054894;28;20139;-87
2021/11/16 09:26:15;;;;;;;50.05;26.65;;;6.50;99.90;;;;;;5054448;28;20080;-87
2021/11/16 09:28:53;;;;;;;49.53;26.33;;;6.60;99.90;;;;;;5053777;28;20060;-87
2021/11/16 09:31:22;;;;;;;50.88;26.45;;;6.60;99.90;;;;;;5053463;28;20045;-87
2021/11/16 09:33:52;;;;;;;44.60;24.73;;;6.70;99.90;;;;;;5054117;28;20249;-87
2021/11/16 09:36:37;;;;;;;46.00;25.42;;;6.70;99.90;;;;;;5053639;28;20059;-87
2021/11/16 09:39:17;;;;;;;45.28;25.10;;;6.70;99.90;;;;;;5053937;28;20132;-88
2021/11/16 09:41:48;;;;;;;47.60;25.23;;;6.70;99.90;;;;;;5053560;28;20045;-88
2021/11/16 09:44:21;;;;;;;47.03;24.50;;;6.60;99.90;;;;;;5054127;28;20060;-87
2021/11/16 09:46:52;;;;;;;46.97;24.85;;;6.60;99.90;;;;;;5053370;28;20408;-88
2021/11/16 09:49:36;;;;;;;39.40;22.63;;;6.80;99.90;;;;;;5054454;28;20148;-88
2021/11/16 09:52:03;;;;;;;39.53;21.20;;;6.90;99.90;;;;;;5053854;28;20052;-87
2021/11/16 09:54:30;;;;;;;37.78;22.00;;;6.90;99.90;;;;;;5053355;28;20041;-88
2021/11/16 09:57:11;;;;;;;37.38;21.88;;;6.90;99.90;;;;;;5053534;28;20053;-88
2021/11/16 09:59:40;;;;;;;42.42;22.85;;;7.00;99.90;;;;;;5053913;28;20049;-88
2021/11/16 10:02:07;;;;;;;42.83;23.80;;;7.10;99.90;;;;;;5053518;28;20055;-87
2021/11/16 10:04:42;;;;;;;40.28;22.67;;;7.20;99.90;;;;;;5054324;28;20045;-87
2021/11/16 10:07:09;;;;;;;36.38;22.33;;;7.20;99.90;;;;;;5052355;28;20136;-88
2021/11/16 10:09:40;;;;;;;42.35;23.55;;;7.30;99.90;;;;;;5054250;28;20080;-88
2021/11/16 10:12:09;;;;;;;41.75;24.38;;;7.30;99.90;;;;;;5052749;28;20051;-88
2021/11/16 10:14:36;;;;;;;38.88;24.52;;;7.40;99.90;;;;;;5052988;28;20152;-88
2021/11/16 10:17:04;;;;;;;34.95;21.08;;;7.50;99.90;;;;;;5052862;28;20404;-87
2021/11/16 10:19:40;;;;;;;32.42;20.25;;;7.50;99.90;;;;;;5054030;28;20389;-88
2021/11/16 10:22:11;;;;;;;34.97;19.60;;;7.60;99.90;;;;;;5053963;28;20045;-88
2021/11/16 10:24:39;;;;;;;32.83;19.95;;;7.60;99.90;;;;;;5052843;28;20124;-87
2021/11/16 10:27:28;;;;;;;31.63;20.02;;;7.70;99.90;;;;;;5052494;28;20045;-87
2021/11/16 10:30:09;;;;;;;40.72;20.55;;;7.90;99.90;;;;;;5053801;28;20055;-88
2021/11/16 10:32:37;;;;;;;35.17;19.75;;;8.10;99.90;;;;;;5049278;28;20045;-87
2021/11/16 10:35:11;;;;;;;33.28;19.67;;;8.10;99.90;;;;;;5052884;28;20137;-88
2021/11/16 10:37:54;;;;;;;30.17;19.10;;;8.10;99.90;;;;;;5053135;28;20051;-87
2021/11/16 10:40:24;;;;;;;35.03;20.27;;;8.10;99.90;;;;;;5051849;28;20110;-87
2021/11/16 10:42:57;;;;;;;33.58;20.65;;;8.20;99.90;;;;;;5052123;28;20105;-87
2021/11/16 10:45:26;;;;;;;31.52;18.88;;;8.30;99.90;;;;;;5052695;28;20049;-88
2021/11/16 10:47:58;;;;;;;32.08;19.65;;;8.40;99.90;;;;;;5052597;28;20056;-87
2021/11/16 10:50:29;;;;;;;31.95;18.88;;;8.40;99.90;;;;;;5052576;28;20045;-87
2021/11/16 10:53:01;;;;;;;30.05;19.30;;;8.30;99.90;;;;;;5052715;28;20049;-88
2021/11/16 10:55:36;;;;;;;31.73;19.60;;;8.20;99.90;;;;;;5052232;28;20095;-88
2021/11/16 10:58:05;;;;;;;31.77;19.15;;;8.10;99.90;;;;;;5053489;28;20492;-87
2021/11/16 11:00:51;;;;;;;34.80;20.67;;;8.00;99.90;;;;;;5052451;28;20049;-87
2021/11/16 11:03:23;;;;;;;32.70;18.98;;;7.80;99.90;;;;;;5052352;28;20131;-88
2021/11/16 11:05:53;;;;;;;33.47;18.95;;;7.70;99.90;;;;;;5052096;28;20139;-88
2021/11/16 11:08:40;;;;;;;29.33;19.15;;;7.60;99.90;;;;;;5052130;28;20044;-87
2021/11/16 11:11:20;;;;;;;30.75;19.23;;;7.60;99.90;;;;;;5053456;28;20507;-87
2021/11/16 11:14:03;;;;;;;39.60;20.48;;;7.60;99.90;;;;;;5049903;28;20045;-87
2021/11/16 11:16:32;;;;;;;30.27;19.17;;;7.60;99.90;;;;;;5053218;28;20055;-87
2021/11/16 11:18:59;;;;;;;29.98;19.42;;;7.70;99.90;;;;;;5053905;28;20048;-87
2021/11/16 11:21:52;;;;;;;28.60;18.20;;;7.90;99.90;;;;;;5052064;28;20053;-87
2021/11/16 11:24:23;;;;;;;29.48;17.98;;;8.10;99.90;;;;;;5051998;28;20056;-87
2021/11/16 11:27:00;;;;;;;29.23;18.25;;;8.40;99.90;;;;;;5052330;28;20055;-87
2021/11/16 11:32:05;;;;;;;30.67;17.60;;;8.80;99.90;;;;;;5053215;28;20051;-87
2021/11/16 11:34:36;;;;;;;28.60;17.55;;;8.80;99.90;;;;;;5052337;28;20087;-88
2021/11/16 11:37:24;;;;;;;27.65;17.80;;;8.90;99.90;;;;;;5053414;28;20492;-87
2021/11/16 11:40:16;;;;;;;28.58;17.73;;;9.30;99.90;;;;;;5052412;28;20049;-88
2021/11/16 11:42:49;;;;;;;26.67;16.23;;;9.60;99.90;;;;;;5052283;28;20103;-87
2021/11/16 11:45:38;;;;;;;25.93;18.03;;;9.90;99.90;;;;;;5052727;28;20078;-88
2021/11/16 11:48:23;;;;;;;28.98;17.73;;;10.10;99.90;;;;;;5050558;28;20710;-88
2021/11/16 11:51:01;;;;;;;28.55;17.88;;;10.10;99.90;;;;;;5052010;28;20509;-88
2021/11/16 11:53:33;;;;;;;26.15;16.85;;;10.30;99.90;;;;;;5054331;28;20143;-88
2021/11/16 11:56:05;;;;;;;29.55;18.60;;;10.50;99.90;;;;;;5054692;28;20049;-88
2021/11/16 11:58:36;;;;;;;26.27;17.90;;;10.60;99.90;;;;;;5056786;28;20060;-88
2021/11/16 12:01:30;;;;;;;32.55;18.38;;;10.60;99.90;;;;;;5055722;28;20045;-87
2021/11/16 12:03:58;;;;;;;30.73;17.85;;;10.60;99.90;;;;;;5053097;28;20052;-88
2021/11/16 12:06:29;;;;;;;26.50;17.48;;;10.80;99.90;;;;;;5055313;28;20053;-88
2021/11/16 12:08:58;;;;;;;29.63;19.08;;;10.70;99.90;;;;;;5055506;28;20056;-88
2021/11/16 12:11:25;;;;;;;27.20;18.70;;;10.70;99.90;;;;;;5056328;28;20085;-88
2021/11/16 12:13:54;;;;;;;29.42;18.48;;;10.60;99.90;;;;;;5055282;28;20056;-88
2021/11/16 12:16:36;;;;;;;28.20;18.73;;;10.40;99.90;;;;;;5055748;28;20053;-87
2021/11/16 12:19:09;;;;;;;31.83;18.90;;;10.20;99.90;;;;;;5056265;28;20045;-88
2021/11/16 12:21:42;;;;;;;36.17;19.40;;;10.20;99.90;;;;;;5055051;28;20067;-88
2021/11/16 12:24:16;;;;;;;25.15;16.95;;;10.00;99.90;;;;;;5055370;28;20067;-88
2021/11/16 12:26:51;;;;;;;27.90;17.20;;;9.90;99.90;;;;;;5054735;28;20049;-87
2021/11/16 12:29:22;;;;;;;26.23;17.13;;;9.70;99.90;;;;;;5056038;28;20044;-88
2021/11/16 12:31:50;;;;;;;28.17;17.80;;;9.70;99.90;;;;;;5055273;28;20055;-88
2021/11/16 12:34:38;;;;;;;26.27;17.50;;;9.60;99.90;;;;;;5055000;28;20049;-88
2021/11/16 12:37:07;;;;;;;32.47;20.02;;;9.60;99.90;;;;;;5056138;28;20049;-87
2021/11/16 12:39:34;;;;;;;36.03;21.75;;;9.50;99.90;;;;;;5054747;28;20055;-87
2021/11/16 12:42:11;;;;;;;38.88;23.30;;;8.60;99.90;;;;;;5055756;28;20059;-87
2021/11/16 12:44:50;;;;;;;39.65;21.85;;;8.40;99.90;;;;;;5054809;28;20080;-87
2021/11/16 12:47:17;;;;;;;38.53;22.50;;;8.20;99.90;;;;;;5054133;28;20127;-86
2021/11/16 12:49:46;;;;;;;45.58;24.27;;;8.00;99.90;;;;;;5055755;28;20136;-87
2021/11/16 12:52:15;;;;;;;40.63;23.23;;;7.80;99.90;;;;;;5055338;28;20484;-86
2021/11/16 12:54:43;;;;;;;41.13;23.42;;;7.40;99.90;;;;;;5055444;28;20393;-87
2021/11/16 12:57:21;;;;;;;41.42;24.25;;;7.20;99.90;;;;;;5055755;28;20073;-87
2021/11/16 12:59:51;;;;;;;46.22;25.92;;;7.40;99.90;;;;;;5054535;28;20455;-87
2021/11/16 13:02:53;;;;;;;41.88;23.33;;;7.40;99.90;;;;;;5054355;28;20080;-87
2021/11/16 13:05:37;;;;;;;40.03;22.60;;;7.60;99.90;;;;;;5053019;28;20141;-87
2021/11/16 13:08:05;;;;;;;41.75;23.30;;;7.50;99.90;;;;;;5055747;28;20403;-87
2021/11/16 13:10:45;;;;;;;41.28;22.83;;;7.30;99.90;;;;;;5053898;28;20055;-86
2021/11/16 13:13:21;;;;;;;42.80;24.15;;;7.30;99.90;;;;;;5054204;28;20476;-87
2021/11/16 13:15:56;;;;;;;39.10;22.10;;;7.00;99.90;;;;;;5054044;28;20523;-87
2021/11/16 13:18:23;;;;;;;41.53;22.05;;;7.20;99.90;;;;;;5051979;28;20132;-87